Sedona, AZ

6:07 AM MST on February 07, 2016 (GMT -0700)
Sedona | | Change Station
CLOSE
Current Station
Airport
Location: Sedona,
Elevation: 4826 ft
Nearby Weather Stations

Elev 4826 ft 34.85 °N, 111.79 °W | Updated 12 minutes ago

Clear
Clear
43 °F
Feels Like 36 °F
N
14
Wind Variable Wind from NE

Today
High -- | Low -- °F
--% Chance of Precip.
Yesterday
High -- | Low -- °F
Precip. -- in
Pressure 30.31 in
Visibility 10.0 miles
Clouds Clear
Windchill 36 °F
Dew Point 10 °F
Humidity 27%
Rainfall 0.00 in
Snow Depth Not available.
7:21 AM 6:01 PM
Waning Crescent, 2% visible
METAR KSEZ 071255Z AUTO 04012KT 10SM CLR 06/M12 A3031 RMK AO2
Pressure 30.31 in
Visibility 10.0 miles
Clouds Clear
Windchill 36 °F
Dew Point 10 °F
Humidity 27%
Rainfall 0.00 in
Snow Depth Not available.
7:21 AM 6:01 PM
Waning Crescent, 2% visible
METAR KSEZ 071255Z AUTO 04012KT 10SM CLR 06/M12 A3031 RMK AO2

10-Day Weather Forecast

Almanac

Astronomy

Feb. 07, 2016 Rise Set
Actual Time
Civil Twilight
Nautical Twilight
Astronomical Twilight
Moon
Length of Visible Light
Length of Day
Tomorrow will be .
, % of the Moon is Illuminated

Today's Extremes

State Highs State Lows

Community

WunderPhotos

Upload Photos

1,891,189 photos uploaded!

WunderBlog® & News

Nearby

Air Quality

  Air Quality AQ Index Pollutant
Not available.

Snow Depth

Station Depth Elevation

Earthquake Activity

City Distance Mag. Time & Date
Minimum magnitude displayed is 2.5.

Coastal Water Temperatures

Place Temperature

Stations

Nearby Weather Stations

Station Location Temp. Windchill Dew Point Humidity Wind Precip. Elev Updated Type
                   

Watches & Warnings

There are currently no watches in effect.